sensor_id;sensor_type;location;lat;lon;timestamp;temperature;humidity
21834;DHT22;11079;51.092;3.458;2023-05-29T00:02:24;14.20;99.90
21834;DHT22;11079;51.092;3.458;2023-05-29T00:04:50;14.00;99.90
21834;DHT22;11079;51.092;3.458;2023-05-29T00:07:16;13.90;99.90
21834;DHT22;11079;51.092;3.458;2023-05-29T00:09:42;13.90;99.90
21834;DHT22;11079;51.092;3.458;2023-05-29T00:12:08;13.90;99.90
21834;DHT22;11079;51.092;3.458;2023-05-29T00:14:34;13.90;99.90
21834;DHT22;11079;51.092;3.458;2023-05-29T00:16:59;13.80;99.90
21834;DHT22;11079;51.092;3.458;2023-05-29T00:19:27;13.90;99.90
21834;DHT22;11079;51.092;3.458;2023-05-29T00:21:52;13.90;99.90
21834;DHT22;11079;51.092;3.458;2023-05-29T00:24:18;13.80;99.90
21834;DHT22;11079;51.092;3.458;2023-05-29T00:26:44;13.80;99.90
21834;DHT22;11079;51.092;3.458;2023-05-29T00:29:11;13.60;99.90
21834;DHT22;11079;51.092;3.458;2023-05-29T00:31:37;13.60;99.90
21834;DHT22;11079;51.092;3.458;2023-05-29T00:34:03;13.50;99.90
21834;DHT22;11079;51.092;3.458;2023-05-29T00:36:28;13.40;99.90
21834;DHT22;11079;51.092;3.458;2023-05-29T00:38:55;13.40;99.90
21834;DHT22;11079;51.092;3.458;2023-05-29T00:41:21;13.40;99.90
21834;DHT22;11079;51.092;3.458;2023-05-29T00:43:47;13.40;99.90
21834;DHT22;11079;51.092;3.458;2023-05-29T00:46:14;13.50;99.90
21834;DHT22;11079;51.092;3.458;2023-05-29T00:48:46;13.30;99.90
21834;DHT22;11079;51.092;3.458;2023-05-29T00:51:13;13.40;99.90
21834;DHT22;11079;51.092;3.458;2023-05-29T00:53:42;13.40;99.90
21834;DHT22;11079;51.092;3.458;2023-05-29T00:56:32;13.50;99.90
21834;DHT22;11079;51.092;3.458;2023-05-29T00:59:01;13.50;99.90
21834;DHT22;11079;51.092;3.458;2023-05-29T01:01:29;13.40;99.90
21834;DHT22;11079;51.092;3.458;2023-05-29T01:04:00;13.30;99.90
21834;DHT22;11079;51.092;3.458;2023-05-29T01:06:29;13.30;99.90
21834;DHT22;11079;51.092;3.458;2023-05-29T01:08:57;13.20;99.90
21834;DHT22;11079;51.092;3.458;2023-05-29T01:11:33;13.10;99.90
21834;DHT22;11079;51.092;3.458;2023-05-29T01:14:06;13.00;99.90
21834;DHT22;11079;51.092;3.458;2023-05-29T01:16:40;12.90;99.90
21834;DHT22;11079;51.092;3.458;2023-05-29T01:19:18;13.00;99.90
21834;DHT22;11079;51.092;3.458;2023-05-29T01:24:37;13.00;99.90
21834;DHT22;11079;51.092;3.458;2023-05-29T01:27:17;13.00;99.90
21834;DHT22;11079;51.092;3.458;2023-05-29T01:29:47;13.00;99.90
21834;DHT22;11079;51.092;3.458;2023-05-29T01:32:14;12.90;99.90
21834;DHT22;11079;51.092;3.458;2023-05-29T01:34:39;13.00;99.90
21834;DHT22;11079;51.092;3.458;2023-05-29T01:37:07;12.90;99.90
21834;DHT22;11079;51.092;3.458;2023-05-29T01:39:33;13.10;99.90
21834;DHT22;11079;51.092;3.458;2023-05-29T01:42:02;13.00;99.90
21834;DHT22;11079;51.092;3.458;2023-05-29T01:44:28;13.10;99.90
21834;DHT22;11079;51.092;3.458;2023-05-29T01:46:56;13.10;99.90
21834;DHT22;11079;51.092;3.458;2023-05-29T01:49:28;13.10;99.90
21834;DHT22;11079;51.092;3.458;2023-05-29T01:51:56;13.20;99.90
21834;DHT22;11079;51.092;3.458;2023-05-29T01:54:21;13.10;99.90
21834;DHT22;11079;51.092;3.458;2023-05-29T01:56:50;13.00;99.90
21834;DHT22;11079;51.092;3.458;2023-05-29T01:59:28;12.90;99.90
21834;DHT22;11079;51.092;3.458;2023-05-29T02:01:55;12.90;99.90
21834;DHT22;11079;51.092;3.458;2023-05-29T02:04:20;12.90;99.90
21834;DHT22;11079;51.092;3.458;2023-05-29T02:06:46;12.90;99.90
21834;DHT22;11079;51.092;3.458;2023-05-29T02:09:12;12.90;99.90
21834;DHT22;11079;51.092;3.458;2023-05-29T02:11:44;12.90;99.90
21834;DHT22;11079;51.092;3.458;2023-05-29T02:14:11;12.80;99.90
21834;DHT22;11079;51.092;3.458;2023-05-29T02:16:38;12.70;99.90
21834;DHT22;11079;51.092;3.458;2023-05-29T02:19:06;12.80;99.90
21834;DHT22;11079;51.092;3.458;2023-05-29T02:21:38;12.70;99.90
21834;DHT22;11079;51.092;3.458;2023-05-29T02:24:07;12.60;99.90
21834;DHT22;11079;51.092;3.458;2023-05-29T02:26:33;12.60;99.90
21834;DHT22;11079;51.092;3.458;2023-05-29T02:29:11;12.60;99.90
21834;DHT22;11079;51.092;3.458;2023-05-29T02:31:37;12.60;99.90
21834;DHT22;11079;51.092;3.458;2023-05-29T02:34:03;12.50;99.90
21834;DHT22;11079;51.092;3.458;2023-05-29T02:36:29;12.50;99.90
21834;DHT22;11079;51.092;3.458;2023-05-29T02:38:54;12.50;99.90
21834;DHT22;11079;51.092;3.458;2023-05-29T02:41:20;12.50;99.90
21834;DHT22;11079;51.092;3.458;2023-05-29T02:43:49;12.50;99.90
21834;DHT22;11079;51.092;3.458;2023-05-29T02:46:15;12.50;99.90
21834;DHT22;11079;51.092;3.458;2023-05-29T02:48:43;12.50;99.90
21834;DHT22;11079;51.092;3.458;2023-05-29T02:51:09;12.30;99.90
21834;DHT22;11079;51.092;3.458;2023-05-29T02:53:35;12.30;99.90
21834;DHT22;11079;51.092;3.458;2023-05-29T02:56:01;12.20;99.90
21834;DHT22;11079;51.092;3.458;2023-05-29T02:58:28;12.20;99.90
21834;DHT22;11079;51.092;3.458;2023-05-29T03:00:55;12.20;99.90
21834;DHT22;11079;51.092;3.458;2023-05-29T03:03:21;12.20;99.90
21834;DHT22;11079;51.092;3.458;2023-05-29T03:05:46;12.30;99.90
21834;DHT22;11079;51.092;3.458;2023-05-29T03:08:12;12.30;99.90
21834;DHT22;11079;51.092;3.458;2023-05-29T03:10:39;12.20;99.90
21834;DHT22;11079;51.092;3.458;2023-05-29T03:13:05;12.20;99.90
21834;DHT22;11079;51.092;3.458;2023-05-29T03:15:30;12.20;99.90
21834;DHT22;11079;51.092;3.458;2023-05-29T03:17:57;12.10;99.90
21834;DHT22;11079;51.092;3.458;2023-05-29T03:20:44;12.00;99.90
21834;DHT22;11079;51.092;3.458;2023-05-29T03:23:10;12.10;99.90
21834;DHT22;11079;51.092;3.458;2023-05-29T03:25:36;12.10;99.90
21834;DHT22;11079;51.092;3.458;2023-05-29T03:28:01;12.00;99.90
21834;DHT22;11079;51.092;3.458;2023-05-29T03:30:27;11.90;99.90
21834;DHT22;11079;51.092;3.458;2023-05-29T03:32:53;11.90;99.90
21834;DHT22;11079;51.092;3.458;2023-05-29T03:35:20;11.80;99.90
21834;DHT22;11079;51.092;3.458;2023-05-29T03:37:49;11.90;99.90
21834;DHT22;11079;51.092;3.458;2023-05-29T03:40:39;11.90;99.90
21834;DHT22;11079;51.092;3.458;2023-05-29T03:43:04;11.90;99.90
21834;DHT22;11079;51.092;3.458;2023-05-29T03:45:32;12.00;99.90
21834;DHT22;11079;51.092;3.458;2023-05-29T03:48:00;11.90;99.90
21834;DHT22;11079;51.092;3.458;2023-05-29T03:50:26;11.90;99.90
21834;DHT22;11079;51.092;3.458;2023-05-29T03:52:52;11.90;99.90
21834;DHT22;11079;51.092;3.458;2023-05-29T03:55:19;12.00;99.90
21834;DHT22;11079;51.092;3.458;2023-05-29T03:57:44;11.90;99.90
21834;DHT22;11079;51.092;3.458;2023-05-29T04:00:11;11.90;99.90
21834;DHT22;11079;51.092;3.458;2023-05-29T04:02:38;11.80;99.90
21834;DHT22;11079;51.092;3.458;2023-05-29T04:05:08;11.80;99.90
21834;DHT22;11079;51.092;3.458;2023-05-29T04:07:41;11.80;99.90
21834;DHT22;11079;51.092;3.458;2023-05-29T04:10:11;11.90;99.90
21834;DHT22;11079;51.092;3.458;2023-05-29T04:12:56;11.90;99.90
21834;DHT22;11079;51.092;3.458;2023-05-29T04:15:42;11.90;99.90
21834;DHT22;11079;51.092;3.458;2023-05-29T04:18:09;11.90;99.90
21834;DHT22;11079;51.092;3.458;2023-05-29T04:20:36;11.80;99.90
21834;DHT22;11079;51.092;3.458;2023-05-29T04:23:01;11.90;99.90
21834;DHT22;11079;51.092;3.458;2023-05-29T04:25:29;11.90;99.90
21834;DHT22;11079;51.092;3.458;2023-05-29T04:27:54;12.00;99.90
21834;DHT22;11079;51.092;3.458;2023-05-29T04:30:21;12.00;99.90
21834;DHT22;11079;51.092;3.458;2023-05-29T04:32:48;12.10;99.90
21834;DHT22;11079;51.092;3.458;2023-05-29T04:35:14;12.20;99.90
21834;DHT22;11079;51.092;3.458;2023-05-29T04:37:40;12.20;99.90
21834;DHT22;11079;51.092;3.458;2023-05-29T04:40:07;12.20;99.90
21834;DHT22;11079;51.092;3.458;2023-05-29T04:42:37;12.00;99.90
21834;DHT22;11079;51.092;3.458;2023-05-29T04:45:04;12.00;99.90
21834;DHT22;11079;51.092;3.458;2023-05-29T04:47:36;12.10;99.90
21834;DHT22;11079;51.092;3.458;2023-05-29T04:50:11;12.40;99.90
21834;DHT22;11079;51.092;3.458;2023-05-29T04:52:37;12.80;99.90
21834;DHT22;11079;51.092;3.458;2023-05-29T04:55:05;13.20;99.90
21834;DHT22;11079;51.092;3.458;2023-05-29T04:57:31;13.20;99.90
21834;DHT22;11079;51.092;3.458;2023-05-29T04:59:57;13.20;99.90
21834;DHT22;11079;51.092;3.458;2023-05-29T05:02:24;13.40;99.90
21834;DHT22;11079;51.092;3.458;2023-05-29T05:04:50;13.40;99.90
21834;DHT22;11079;51.092;3.458;2023-05-29T05:07:16;13.50;99.90
21834;DHT22;11079;51.092;3.458;2023-05-29T05:09:44;13.70;99.90
21834;DHT22;11079;51.092;3.458;2023-05-29T05:12:12;14.00;99.90
21834;DHT22;11079;51.092;3.458;2023-05-29T05:14:38;14.10;99.90
21834;DHT22;11079;51.092;3.458;2023-05-29T05:17:12;14.30;99.90
21834;DHT22;11079;51.092;3.458;2023-05-29T05:19:38;14.30;99.90
21834;DHT22;11079;51.092;3.458;2023-05-29T05:22:03;14.50;99.90
21834;DHT22;11079;51.092;3.458;2023-05-29T05:24:30;14.90;99.90
21834;DHT22;11079;51.092;3.458;2023-05-29T05:26:57;15.00;99.90
21834;DHT22;11079;51.092;3.458;2023-05-29T05:29:25;15.00;99.90
21834;DHT22;11079;51.092;3.458;2023-05-29T05:31:53;15.10;99.90
21834;DHT22;11079;51.092;3.458;2023-05-29T05:34:18;15.20;99.90
21834;DHT22;11079;51.092;3.458;2023-05-29T05:36:44;15.40;99.90
21834;DHT22;11079;51.092;3.458;2023-05-29T05:39:11;15.40;99.90
21834;DHT22;11079;51.092;3.458;2023-05-29T05:41:37;15.40;99.90
21834;DHT22;11079;51.092;3.458;2023-05-29T05:44:03;15.60;99.90
21834;DHT22;11079;51.092;3.458;2023-05-29T05:46:28;15.80;99.90
21834;DHT22;11079;51.092;3.458;2023-05-29T05:48:54;16.20;99.90
21834;DHT22;11079;51.092;3.458;2023-05-29T05:51:23;16.00;99.90
21834;DHT22;11079;51.092;3.458;2023-05-29T05:53:51;15.70;99.90
21834;DHT22;11079;51.092;3.458;2023-05-29T05:56:19;16.00;99.90
21834;DHT22;11079;51.092;3.458;2023-05-29T05:58:44;16.50;99.90
21834;DHT22;11079;51.092;3.458;2023-05-29T06:01:10;16.40;99.90
21834;DHT22;11079;51.092;3.458;2023-05-29T06:03:36;16.40;99.90
21834;DHT22;11079;51.092;3.458;2023-05-29T06:06:03;16.90;99.90
21834;DHT22;11079;51.092;3.458;2023-05-29T06:08:29;17.00;99.90
21834;DHT22;11079;51.092;3.458;2023-05-29T06:10:56;17.30;99.90
21834;DHT22;11079;51.092;3.458;2023-05-29T06:13:22;17.60;99.90
21834;DHT22;11079;51.092;3.458;2023-05-29T06:15:48;17.90;99.90
21834;DHT22;11079;51.092;3.458;2023-05-29T06:18:13;17.60;99.90
21834;DHT22;11079;51.092;3.458;2023-05-29T06:20:39;17.50;99.90
21834;DHT22;11079;51.092;3.458;2023-05-29T06:23:05;17.50;99.90
21834;DHT22;11079;51.092;3.458;2023-05-29T06:25:31;17.50;99.90
21834;DHT22;11079;51.092;3.458;2023-05-29T06:28:03;17.30;99.90
21834;DHT22;11079;51.092;3.458;2023-05-29T06:30:31;17.40;99.90
21834;DHT22;11079;51.092;3.458;2023-05-29T06:32:58;17.60;99.90
21834;DHT22;11079;51.092;3.458;2023-05-29T06:35:23;17.80;99.90
21834;DHT22;11079;51.092;3.458;2023-05-29T06:37:49;17.80;99.90
21834;DHT22;11079;51.092;3.458;2023-05-29T06:40:15;18.40;99.90
21834;DHT22;11079;51.092;3.458;2023-05-29T06:42:43;18.40;99.90
21834;DHT22;11079;51.092;3.458;2023-05-29T06:45:12;18.50;99.90
21834;DHT22;11079;51.092;3.458;2023-05-29T06:47:47;18.40;99.90
21834;DHT22;11079;51.092;3.458;2023-05-29T06:50:13;18.20;99.90
21834;DHT22;11079;51.092;3.458;2023-05-29T06:52:39;18.10;99.90
21834;DHT22;11079;51.092;3.458;2023-05-29T06:55:06;18.10;99.90
21834;DHT22;11079;51.092;3.458;2023-05-29T06:57:32;18.10;99.90
21834;DHT22;11079;51.092;3.458;2023-05-29T06:59:58;18.50;99.90
21834;DHT22;11079;51.092;3.458;2023-05-29T07:02:23;19.70;99.90
21834;DHT22;11079;51.092;3.458;2023-05-29T07:04:49;19.90;99.90
21834;DHT22;11079;51.092;3.458;2023-05-29T07:07:15;20.00;99.90
21834;DHT22;11079;51.092;3.458;2023-05-29T07:09:41;20.50;99.90
21834;DHT22;11079;51.092;3.458;2023-05-29T07:12:07;20.80;99.90
21834;DHT22;11079;51.092;3.458;2023-05-29T07:14:32;20.70;99.90
21834;DHT22;11079;51.092;3.458;2023-05-29T07:16:59;20.30;99.90
21834;DHT22;11079;51.092;3.458;2023-05-29T07:19:25;20.20;99.90
21834;DHT22;11079;51.092;3.458;2023-05-29T07:21:53;20.50;99.90
21834;DHT22;11079;51.092;3.458;2023-05-29T07:24:18;21.20;99.90
21834;DHT22;11079;51.092;3.458;2023-05-29T07:26:44;20.70;99.90
21834;DHT22;11079;51.092;3.458;2023-05-29T07:29:10;21.30;99.90
21834;DHT22;11079;51.092;3.458;2023-05-29T07:31:36;21.30;99.90
21834;DHT22;11079;51.092;3.458;2023-05-29T07:34:04;20.90;99.90
21834;DHT22;11079;51.092;3.458;2023-05-29T07:36:30;21.00;99.90
21834;DHT22;11079;51.092;3.458;2023-05-29T07:38:59;21.60;99.90
21834;DHT22;11079;51.092;3.458;2023-05-29T07:41:25;21.80;99.90
21834;DHT22;11079;51.092;3.458;2023-05-29T07:43:52;22.30;99.90
21834;DHT22;11079;51.092;3.458;2023-05-29T07:46:18;22.20;99.90
21834;DHT22;11079;51.092;3.458;2023-05-29T07:48:44;22.20;99.90
21834;DHT22;11079;51.092;3.458;2023-05-29T07:51:12;22.10;99.90
21834;DHT22;11079;51.092;3.458;2023-05-29T07:53:38;21.80;99.90
21834;DHT22;11079;51.092;3.458;2023-05-29T07:56:03;22.50;99.90
21834;DHT22;11079;51.092;3.458;2023-05-29T07:58:29;22.10;99.90
21834;DHT22;11079;51.092;3.458;2023-05-29T08:00:55;22.00;99.90
21834;DHT22;11079;51.092;3.458;2023-05-29T08:03:20;22.00;99.90
21834;DHT22;11079;51.092;3.458;2023-05-29T08:05:52;22.20;99.90
21834;DHT22;11079;51.092;3.458;2023-05-29T08:08:21;22.00;99.90
21834;DHT22;11079;51.092;3.458;2023-05-29T08:10:47;22.20;99.90
21834;DHT22;11079;51.092;3.458;2023-05-29T08:13:13;22.30;99.90
21834;DHT22;11079;51.092;3.458;2023-05-29T08:15:39;21.90;99.90
21834;DHT22;11079;51.092;3.458;2023-05-29T08:18:05;22.60;99.90
21834;DHT22;11079;51.092;3.458;2023-05-29T08:20:30;23.40;99.90
21834;DHT22;11079;51.092;3.458;2023-05-29T08:22:56;23.40;99.90
21834;DHT22;11079;51.092;3.458;2023-05-29T08:25:22;23.70;99.90
21834;DHT22;11079;51.092;3.458;2023-05-29T08:27:47;23.20;99.90
21834;DHT22;11079;51.092;3.458;2023-05-29T08:30:13;23.20;99.90
21834;DHT22;11079;51.092;3.458;2023-05-29T08:32:38;23.20;99.90
21834;DHT22;11079;51.092;3.458;2023-05-29T08:35:04;23.10;99.90
21834;DHT22;11079;51.092;3.458;2023-05-29T08:37:30;23.40;99.90
21834;DHT22;11079;51.092;3.458;2023-05-29T08:39:56;22.60;99.90
21834;DHT22;11079;51.092;3.458;2023-05-29T08:42:29;23.10;99.90
21834;DHT22;11079;51.092;3.458;2023-05-29T08:44:56;23.60;99.90
21834;DHT22;11079;51.092;3.458;2023-05-29T08:47:26;23.30;99.90
21834;DHT22;11079;51.092;3.458;2023-05-29T08:49:53;23.20;99.90
21834;DHT22;11079;51.092;3.458;2023-05-29T08:52:22;23.10;99.90
21834;DHT22;11079;51.092;3.458;2023-05-29T08:54:48;23.20;99.90
21834;DHT22;11079;51.092;3.458;2023-05-29T08:57:14;23.50;99.90
21834;DHT22;11079;51.092;3.458;2023-05-29T08:59:42;23.90;99.90
21834;DHT22;11079;51.092;3.458;2023-05-29T09:02:10;23.90;99.90
21834;DHT22;11079;51.092;3.458;2023-05-29T09:04:37;23.40;99.90
21834;DHT22;11079;51.092;3.458;2023-05-29T09:07:04;23.50;99.90
21834;DHT22;11079;51.092;3.458;2023-05-29T09:09:30;24.40;99.90
21834;DHT22;11079;51.092;3.458;2023-05-29T09:11:57;24.20;99.90
21834;DHT22;11079;51.092;3.458;2023-05-29T09:14:33;23.90;99.90
21834;DHT22;11079;51.092;3.458;2023-05-29T09:17:00;24.00;99.90
21834;DHT22;11079;51.092;3.458;2023-05-29T09:19:25;24.10;99.90
21834;DHT22;11079;51.092;3.458;2023-05-29T09:21:51;24.00;99.90
21834;DHT22;11079;51.092;3.458;2023-05-29T09:24:17;23.90;99.90
21834;DHT22;11079;51.092;3.458;2023-05-29T09:26:49;24.20;99.90
21834;DHT22;11079;51.092;3.458;2023-05-29T09:29:15;24.40;99.90
21834;DHT22;11079;51.092;3.458;2023-05-29T09:31:48;25.10;99.90
21834;DHT22;11079;51.092;3.458;2023-05-29T09:34:14;24.50;99.90
21834;DHT22;11079;51.092;3.458;2023-05-29T09:36:40;24.70;99.90
21834;DHT22;11079;51.092;3.458;2023-05-29T09:39:06;24.70;99.90
21834;DHT22;11079;51.092;3.458;2023-05-29T09:41:44;24.50;99.90
21834;DHT22;11079;51.092;3.458;2023-05-29T09:44:14;25.40;99.90
21834;DHT22;11079;51.092;3.458;2023-05-29T09:46:43;25.30;99.90
21834;DHT22;11079;51.092;3.458;2023-05-29T09:49:13;25.70;99.90
21834;DHT22;11079;51.092;3.458;2023-05-29T09:51:39;26.20;99.90
21834;DHT22;11079;51.092;3.458;2023-05-29T09:54:17;26.60;99.90
21834;DHT22;11079;51.092;3.458;2023-05-29T09:56:44;27.00;99.90
21834;DHT22;11079;51.092;3.458;2023-05-29T09:59:12;26.70;99.90
21834;DHT22;11079;51.092;3.458;2023-05-29T10:01:43;27.50;99.90
21834;DHT22;11079;51.092;3.458;2023-05-29T10:04:10;26.80;99.90
21834;DHT22;11079;51.092;3.458;2023-05-29T10:06:38;26.70;99.90
21834;DHT22;11079;51.092;3.458;2023-05-29T10:09:09;25.50;99.90
21834;DHT22;11079;51.092;3.458;2023-05-29T10:11:37;25.60;99.90
21834;DHT22;11079;51.092;3.458;2023-05-29T10:14:05;26.30;99.90
21834;DHT22;11079;51.092;3.458;2023-05-29T10:16:32;27.20;99.90
21834;DHT22;11079;51.092;3.458;2023-05-29T10:19:01;27.20;99.90
21834;DHT22;11079;51.092;3.458;2023-05-29T10:21:33;27.60;99.20
21834;DHT22;11079;51.092;3.458;2023-05-29T10:24:04;27.70;98.50
21834;DHT22;11079;51.092;3.458;2023-05-29T10:26:36;28.20;98.40
21834;DHT22;11079;51.092;3.458;2023-05-29T10:29:12;28.10;98.10
21834;DHT22;11079;51.092;3.458;2023-05-29T10:31:46;28.00;96.50
21834;DHT22;11079;51.092;3.458;2023-05-29T10:37:06;28.20;96.60
21834;DHT22;11079;51.092;3.458;2023-05-29T10:39:33;28.70;96.10
21834;DHT22;11079;51.092;3.458;2023-05-29T10:41:59;28.80;96.10
21834;DHT22;11079;51.092;3.458;2023-05-29T10:49:26;27.70;97.70
21834;DHT22;11079;51.092;3.458;2023-05-29T10:51:52;27.90;97.70
21834;DHT22;11079;51.092;3.458;2023-05-29T10:54:25;28.70;97.10
21834;DHT22;11079;51.092;3.458;2023-05-29T10:57:00;27.20;96.10
21834;DHT22;11079;51.092;3.458;2023-05-29T10:59:26;27.80;97.50
21834;DHT22;11079;51.092;3.458;2023-05-29T11:01:54;28.50;95.50
21834;DHT22;11079;51.092;3.458;2023-05-29T11:06:46;28.40;94.50
21834;DHT22;11079;51.092;3.458;2023-05-29T11:12:24;28.30;94.50
21834;DHT22;11079;51.092;3.458;2023-05-29T11:15:09;28.20;95.10
21834;DHT22;11079;51.092;3.458;2023-05-29T11:20:37;28.70;94.60
21834;DHT22;11079;51.092;3.458;2023-05-29T11:23:07;28.50;95.40
21834;DHT22;11079;51.092;3.458;2023-05-29T11:25:37;27.70;95.90
21834;DHT22;11079;51.092;3.458;2023-05-29T11:28:04;28.30;96.00
21834;DHT22;11079;51.092;3.458;2023-05-29T11:30:41;28.40;95.40
21834;DHT22;11079;51.092;3.458;2023-05-29T11:33:08;29.60;95.00
21834;DHT22;11079;51.092;3.458;2023-05-29T11:35:41;30.00;93.90
21834;DHT22;11079;51.092;3.458;2023-05-29T11:38:07;29.60;92.20
21834;DHT22;11079;51.092;3.458;2023-05-29T11:40:37;28.90;92.50
21834;DHT22;11079;51.092;3.458;2023-05-29T11:43:03;28.50;93.80
21834;DHT22;11079;51.092;3.458;2023-05-29T11:45:36;28.30;93.80
21834;DHT22;11079;51.092;3.458;2023-05-29T11:48:03;28.40;93.10
21834;DHT22;11079;51.092;3.458;2023-05-29T11:50:30;28.70;93.20
21834;DHT22;11079;51.092;3.458;2023-05-29T11:52:57;28.20;93.10
21834;DHT22;11079;51.092;3.458;2023-05-29T11:55:23;28.70;93.30
21834;DHT22;11079;51.092;3.458;2023-05-29T11:57:51;28.50;94.30
21834;DHT22;11079;51.092;3.458;2023-05-29T12:00:18;28.70;93.40
21834;DHT22;11079;51.092;3.458;2023-05-29T12:02:45;28.30;93.60
21834;DHT22;11079;51.092;3.458;2023-05-29T12:05:17;28.90;93.60
21834;DHT22;11079;51.092;3.458;2023-05-29T12:07:52;29.10;92.40
21834;DHT22;11079;51.092;3.458;2023-05-29T12:10:22;29.30;92.00
21834;DHT22;11079;51.092;3.458;2023-05-29T12:12:55;29.00;91.30
21834;DHT22;11079;51.092;3.458;2023-05-29T12:15:22;28.30;91.40
21834;DHT22;11079;51.092;3.458;2023-05-29T12:17:49;27.90;92.90
21834;DHT22;11079;51.092;3.458;2023-05-29T12:20:17;27.90;93.10
21834;DHT22;11079;51.092;3.458;2023-05-29T12:22:43;27.10;93.80
21834;DHT22;11079;51.092;3.458;2023-05-29T12:25:17;27.80;93.20
21834;DHT22;11079;51.092;3.458;2023-05-29T12:27:44;27.90;93.10
21834;DHT22;11079;51.092;3.458;2023-05-29T12:30:13;28.30;93.00
21834;DHT22;11079;51.092;3.458;2023-05-29T12:32:41;27.70;92.70
21834;DHT22;11079;51.092;3.458;2023-05-29T12:37:48;28.10;92.90
21834;DHT22;11079;51.092;3.458;2023-05-29T12:40:23;28.10;92.70
21834;DHT22;11079;51.092;3.458;2023-05-29T12:42:57;28.50;92.10
21834;DHT22;11079;51.092;3.458;2023-05-29T12:45:25;29.30;92.40
21834;DHT22;11079;51.092;3.458;2023-05-29T12:47:55;28.90;89.70
21834;DHT22;11079;51.092;3.458;2023-05-29T12:55:21;27.20;92.00
21834;DHT22;11079;51.092;3.458;2023-05-29T12:57:47;27.40;90.70
21834;DHT22;11079;51.092;3.458;2023-05-29T13:00:13;28.20;91.30
21834;DHT22;11079;51.092;3.458;2023-05-29T13:02:43;27.90;91.30
21834;DHT22;11079;51.092;3.458;2023-05-29T13:05:09;28.70;91.20
21834;DHT22;11079;51.092;3.458;2023-05-29T13:07:35;28.70;88.10
21834;DHT22;11079;51.092;3.458;2023-05-29T13:10:01;28.60;88.30
21834;DHT22;11079;51.092;3.458;2023-05-29T13:12:27;28.50;90.10
21834;DHT22;11079;51.092;3.458;2023-05-29T13:14:53;28.20;86.60
21834;DHT22;11079;51.092;3.458;2023-05-29T13:17:21;28.50;88.60
21834;DHT22;11079;51.092;3.458;2023-05-29T13:19:47;28.10;86.80
21834;DHT22;11079;51.092;3.458;2023-05-29T13:22:12;28.50;86.00
21834;DHT22;11079;51.092;3.458;2023-05-29T13:24:38;28.10;87.00
21834;DHT22;11079;51.092;3.458;2023-05-29T13:27:05;27.30;83.50
21834;DHT22;11079;51.092;3.458;2023-05-29T13:29:31;26.90;85.40
21834;DHT22;11079;51.092;3.458;2023-05-29T13:31:57;26.80;85.70
21834;DHT22;11079;51.092;3.458;2023-05-29T13:34:24;26.40;85.30
21834;DHT22;11079;51.092;3.458;2023-05-29T13:36:57;26.50;86.70
21834;DHT22;11079;51.092;3.458;2023-05-29T13:39:23;26.60;90.10
21834;DHT22;11079;51.092;3.458;2023-05-29T13:41:48;26.50;90.10
21834;DHT22;11079;51.092;3.458;2023-05-29T13:44:14;26.70;91.20
21834;DHT22;11079;51.092;3.458;2023-05-29T13:46:39;26.60;90.90
21834;DHT22;11079;51.092;3.458;2023-05-29T13:49:05;26.20;91.60
21834;DHT22;11079;51.092;3.458;2023-05-29T13:51:32;25.90;92.40
21834;DHT22;11079;51.092;3.458;2023-05-29T13:53:59;25.20;91.60
21834;DHT22;11079;51.092;3.458;2023-05-29T13:56:24;24.60;92.80
21834;DHT22;11079;51.092;3.458;2023-05-29T13:58:52;24.60;95.70
21834;DHT22;11079;51.092;3.458;2023-05-29T14:01:18;24.70;95.10
21834;DHT22;11079;51.092;3.458;2023-05-29T14:03:47;24.30;95.60
21834;DHT22;11079;51.092;3.458;2023-05-29T14:06:12;23.60;96.40
21834;DHT22;11079;51.092;3.458;2023-05-29T14:08:38;22.90;98.50
21834;DHT22;11079;51.092;3.458;2023-05-29T14:11:04;22.70;99.90
21834;DHT22;11079;51.092;3.458;2023-05-29T14:13:30;22.80;99.90
21834;DHT22;11079;51.092;3.458;2023-05-29T14:15:55;22.80;99.90
21834;DHT22;11079;51.092;3.458;2023-05-29T14:18:22;22.90;99.90
21834;DHT22;11079;51.092;3.458;2023-05-29T14:20:48;22.90;99.90
21834;DHT22;11079;51.092;3.458;2023-05-29T14:23:17;22.70;99.90
21834;DHT22;11079;51.092;3.458;2023-05-29T14:25:43;22.50;99.90
21834;DHT22;11079;51.092;3.458;2023-05-29T14:28:09;22.50;99.90
21834;DHT22;11079;51.092;3.458;2023-05-29T14:30:36;22.70;99.90
21834;DHT22;11079;51.092;3.458;2023-05-29T14:33:01;22.50;99.90
21834;DHT22;11079;51.092;3.458;2023-05-29T14:35:27;22.00;99.90
21834;DHT22;11079;51.092;3.458;2023-05-29T14:37:53;21.90;99.90
21834;DHT22;11079;51.092;3.458;2023-05-29T14:40:18;22.20;99.90
21834;DHT22;11079;51.092;3.458;2023-05-29T14:42:44;22.10;99.90
21834;DHT22;11079;51.092;3.458;2023-05-29T14:45:09;22.10;99.90
21834;DHT22;11079;51.092;3.458;2023-05-29T14:47:36;22.20;99.90
21834;DHT22;11079;51.092;3.458;2023-05-29T14:50:01;22.40;99.90
21834;DHT22;11079;51.092;3.458;2023-05-29T14:52:27;22.10;99.90
21834;DHT22;11079;51.092;3.458;2023-05-29T14:54:53;21.90;99.90
21834;DHT22;11079;51.092;3.458;2023-05-29T14:57:18;21.60;99.90
21834;DHT22;11079;51.092;3.458;2023-05-29T14:59:44;21.60;99.90
21834;DHT22;11079;51.092;3.458;2023-05-29T15:02:10;21.60;99.90
21834;DHT22;11079;51.092;3.458;2023-05-29T15:04:36;21.30;99.90
21834;DHT22;11079;51.092;3.458;2023-05-29T15:07:02;21.30;99.90
21834;DHT22;11079;51.092;3.458;2023-05-29T15:09:28;21.00;99.90
21834;DHT22;11079;51.092;3.458;2023-05-29T15:11:54;20.80;99.90
21834;DHT22;11079;51.092;3.458;2023-05-29T15:14:19;20.80;99.90
21834;DHT22;11079;51.092;3.458;2023-05-29T15:16:45;20.80;99.90
21834;DHT22;11079;51.092;3.458;2023-05-29T15:19:11;20.80;99.90
21834;DHT22;11079;51.092;3.458;2023-05-29T15:21:37;20.50;99.90
21834;DHT22;11079;51.092;3.458;2023-05-29T15:24:03;20.20;99.90
21834;DHT22;11079;51.092;3.458;2023-05-29T15:26:29;20.00;99.90
21834;DHT22;11079;51.092;3.458;2023-05-29T15:28:54;20.10;99.90
21834;DHT22;11079;51.092;3.458;2023-05-29T15:31:20;20.30;99.90
21834;DHT22;11079;51.092;3.458;2023-05-29T15:33:49;20.40;99.90
21834;DHT22;11079;51.092;3.458;2023-05-29T15:36:15;20.20;99.90
21834;DHT22;11079;51.092;3.458;2023-05-29T15:38:45;20.20;99.90
21834;DHT22;11079;51.092;3.458;2023-05-29T15:41:11;20.30;99.90
21834;DHT22;11079;51.092;3.458;2023-05-29T15:43:36;20.30;99.90
21834;DHT22;11079;51.092;3.458;2023-05-29T15:46:02;20.50;99.90
21834;DHT22;11079;51.092;3.458;2023-05-29T15:48:29;20.70;99.90
21834;DHT22;11079;51.092;3.458;2023-05-29T15:50:54;20.50;99.90
21834;DHT22;11079;51.092;3.458;2023-05-29T15:53:20;20.40;99.90
21834;DHT22;11079;51.092;3.458;2023-05-29T15:55:45;20.40;99.90
21834;DHT22;11079;51.092;3.458;2023-05-29T15:58:11;20.40;99.90
21834;DHT22;11079;51.092;3.458;2023-05-29T16:00:37;20.50;99.90